sensor_id;sensor_type;location;lat;lon;timestamp;temperature;humidity
13409;DHT22;6775;49.574;11.170;2023-09-19T00:00:47;16.10;99.90
13409;DHT22;6775;49.574;11.170;2023-09-19T00:03:17;16.10;99.90
13409;DHT22;6775;49.574;11.170;2023-09-19T00:05:45;16.10;99.90
13409;DHT22;6775;49.574;11.170;2023-09-19T00:08:14;16.10;99.90
13409;DHT22;6775;49.574;11.170;2023-09-19T00:10:43;16.00;99.90
13409;DHT22;6775;49.574;11.170;2023-09-19T00:13:11;15.90;99.90
13409;DHT22;6775;49.574;11.170;2023-09-19T00:15:43;15.90;99.90
13409;DHT22;6775;49.574;11.170;2023-09-19T00:18:18;15.80;99.90
13409;DHT22;6775;49.574;11.170;2023-09-19T00:20:49;15.80;99.90
13409;DHT22;6775;49.574;11.170;2023-09-19T00:23:19;15.70;99.90
13409;DHT22;6775;49.574;11.170;2023-09-19T00:25:48;15.70;99.90
13409;DHT22;6775;49.574;11.170;2023-09-19T00:28:17;15.70;99.90
13409;DHT22;6775;49.574;11.170;2023-09-19T00:30:46;15.70;99.90
13409;DHT22;6775;49.574;11.170;2023-09-19T00:33:18;15.70;99.90
13409;DHT22;6775;49.574;11.170;2023-09-19T00:35:47;15.70;99.90
13409;DHT22;6775;49.574;11.170;2023-09-19T00:38:16;15.70;99.90
13409;DHT22;6775;49.574;11.170;2023-09-19T00:40:48;15.70;99.90
13409;DHT22;6775;49.574;11.170;2023-09-19T00:43:17;15.70;99.90
13409;DHT22;6775;49.574;11.170;2023-09-19T00:45:48;15.70;99.90
13409;DHT22;6775;49.574;11.170;2023-09-19T00:48:20;15.50;99.90
13409;DHT22;6775;49.574;11.170;2023-09-19T00:50:50;15.40;99.90
13409;DHT22;6775;49.574;11.170;2023-09-19T00:53:21;15.30;99.90
13409;DHT22;6775;49.574;11.170;2023-09-19T00:55:52;15.30;99.90
13409;DHT22;6775;49.574;11.170;2023-09-19T00:58:20;15.30;99.90
13409;DHT22;6775;49.574;11.170;2023-09-19T01:00:49;15.30;99.90
13409;DHT22;6775;49.574;11.170;2023-09-19T01:03:22;15.20;99.90
13409;DHT22;6775;49.574;11.170;2023-09-19T01:05:51;15.20;99.90
13409;DHT22;6775;49.574;11.170;2023-09-19T01:08:19;15.30;99.90
13409;DHT22;6775;49.574;11.170;2023-09-19T01:10:52;15.20;99.90
13409;DHT22;6775;49.574;11.170;2023-09-19T01:13:29;15.30;99.90
13409;DHT22;6775;49.574;11.170;2023-09-19T01:16:07;15.30;99.90
13409;DHT22;6775;49.574;11.170;2023-09-19T01:19:11;15.30;99.90
13409;DHT22;6775;49.574;11.170;2023-09-19T01:21:57;15.30;99.90
13409;DHT22;6775;49.574;11.170;2023-09-19T01:25:01;15.30;99.90
13409;DHT22;6775;49.574;11.170;2023-09-19T01:28:10;15.30;99.90
13409;DHT22;6775;49.574;11.170;2023-09-19T01:30:53;15.30;99.90
13409;DHT22;6775;49.574;11.170;2023-09-19T01:33:25;15.30;99.90
13409;DHT22;6775;49.574;11.170;2023-09-19T01:35:53;15.40;99.90
13409;DHT22;6775;49.574;11.170;2023-09-19T01:38:24;15.40;99.90
13409;DHT22;6775;49.574;11.170;2023-09-19T01:40:58;15.40;99.90
13409;DHT22;6775;49.574;11.170;2023-09-19T01:43:36;15.40;99.90
13409;DHT22;6775;49.574;11.170;2023-09-19T01:46:16;15.40;99.90
13409;DHT22;6775;49.574;11.170;2023-09-19T01:48:56;15.40;99.90
13409;DHT22;6775;49.574;11.170;2023-09-19T01:51:42;15.40;99.90
13409;DHT22;6775;49.574;11.170;2023-09-19T01:54:18;15.40;99.90
13409;DHT22;6775;49.574;11.170;2023-09-19T01:56:59;15.40;99.90
13409;DHT22;6775;49.574;11.170;2023-09-19T01:59:39;15.40;99.90
13409;DHT22;6775;49.574;11.170;2023-09-19T02:02:12;15.40;99.90
13409;DHT22;6775;49.574;11.170;2023-09-19T02:04:42;15.50;99.90
13409;DHT22;6775;49.574;11.170;2023-09-19T02:07:11;15.50;99.90
13409;DHT22;6775;49.574;11.170;2023-09-19T02:09:43;15.50;99.90
13409;DHT22;6775;49.574;11.170;2023-09-19T02:12:11;15.50;99.90
13409;DHT22;6775;49.574;11.170;2023-09-19T02:14:41;15.50;99.90
13409;DHT22;6775;49.574;11.170;2023-09-19T02:17:09;15.60;99.90
13409;DHT22;6775;49.574;11.170;2023-09-19T02:19:39;15.60;99.90
13409;DHT22;6775;49.574;11.170;2023-09-19T02:22:08;15.60;99.90
13409;DHT22;6775;49.574;11.170;2023-09-19T02:24:37;15.60;99.90
13409;DHT22;6775;49.574;11.170;2023-09-19T02:27:05;15.60;99.90
13409;DHT22;6775;49.574;11.170;2023-09-19T02:29:34;15.70;99.90
13409;DHT22;6775;49.574;11.170;2023-09-19T02:32:02;15.70;99.90
13409;DHT22;6775;49.574;11.170;2023-09-19T02:34:31;15.70;99.90
13409;DHT22;6775;49.574;11.170;2023-09-19T02:37:04;15.80;99.90
13409;DHT22;6775;49.574;11.170;2023-09-19T02:39:33;15.80;99.90
13409;DHT22;6775;49.574;11.170;2023-09-19T02:42:01;15.80;99.90
13409;DHT22;6775;49.574;11.170;2023-09-19T02:44:30;15.80;99.90
13409;DHT22;6775;49.574;11.170;2023-09-19T02:46:59;15.90;99.90
13409;DHT22;6775;49.574;11.170;2023-09-19T02:49:27;15.90;99.90
13409;DHT22;6775;49.574;11.170;2023-09-19T02:51:55;15.90;99.90
13409;DHT22;6775;49.574;11.170;2023-09-19T02:54:26;16.00;99.90
13409;DHT22;6775;49.574;11.170;2023-09-19T02:56:55;16.10;99.90
13409;DHT22;6775;49.574;11.170;2023-09-19T02:59:23;16.10;99.90
13409;DHT22;6775;49.574;11.170;2023-09-19T03:01:51;16.20;99.90
13409;DHT22;6775;49.574;11.170;2023-09-19T03:04:21;16.20;99.90
13409;DHT22;6775;49.574;11.170;2023-09-19T03:06:49;16.30;99.90
13409;DHT22;6775;49.574;11.170;2023-09-19T03:09:18;16.30;99.90
13409;DHT22;6775;49.574;11.170;2023-09-19T03:11:47;16.30;99.90
13409;DHT22;6775;49.574;11.170;2023-09-19T03:14:16;16.30;99.90
13409;DHT22;6775;49.574;11.170;2023-09-19T03:16:46;16.30;99.90
13409;DHT22;6775;49.574;11.170;2023-09-19T03:19:14;16.30;99.90
13409;DHT22;6775;49.574;11.170;2023-09-19T03:21:42;16.20;99.90
13409;DHT22;6775;49.574;11.170;2023-09-19T03:24:10;16.30;99.90
13409;DHT22;6775;49.574;11.170;2023-09-19T03:26:39;16.30;99.90
13409;DHT22;6775;49.574;11.170;2023-09-19T03:29:08;16.30;99.90
13409;DHT22;6775;49.574;11.170;2023-09-19T03:31:36;16.20;99.90
13409;DHT22;6775;49.574;11.170;2023-09-19T03:34:05;16.20;99.90
13409;DHT22;6775;49.574;11.170;2023-09-19T03:36:33;16.20;99.90
13409;DHT22;6775;49.574;11.170;2023-09-19T03:39:01;16.10;99.90
13409;DHT22;6775;49.574;11.170;2023-09-19T03:41:31;16.00;99.90
13409;DHT22;6775;49.574;11.170;2023-09-19T03:44:00;16.00;99.90
13409;DHT22;6775;49.574;11.170;2023-09-19T03:46:29;16.00;99.90
13409;DHT22;6775;49.574;11.170;2023-09-19T03:48:58;15.90;99.90
13409;DHT22;6775;49.574;11.170;2023-09-19T03:51:27;15.90;99.90
13409;DHT22;6775;49.574;11.170;2023-09-19T03:53:55;15.90;99.90
13409;DHT22;6775;49.574;11.170;2023-09-19T03:56:23;15.80;99.90
13409;DHT22;6775;49.574;11.170;2023-09-19T03:58:51;15.80;99.90
13409;DHT22;6775;49.574;11.170;2023-09-19T04:01:19;15.80;99.90
13409;DHT22;6775;49.574;11.170;2023-09-19T04:03:49;15.80;99.90
13409;DHT22;6775;49.574;11.170;2023-09-19T04:06:18;15.80;99.90
13409;DHT22;6775;49.574;11.170;2023-09-19T04:08:47;15.70;99.90
13409;DHT22;6775;49.574;11.170;2023-09-19T04:11:15;15.80;99.90
13409;DHT22;6775;49.574;11.170;2023-09-19T04:13:43;15.70;99.90
13409;DHT22;6775;49.574;11.170;2023-09-19T04:16:11;15.80;99.90
13409;DHT22;6775;49.574;11.170;2023-09-19T04:18:40;15.90;99.90
13409;DHT22;6775;49.574;11.170;2023-09-19T04:21:09;15.80;99.90
13409;DHT22;6775;49.574;11.170;2023-09-19T04:23:37;15.80;99.90
13409;DHT22;6775;49.574;11.170;2023-09-19T04:26:06;15.80;99.90
13409;DHT22;6775;49.574;11.170;2023-09-19T04:28:34;15.80;99.90
13409;DHT22;6775;49.574;11.170;2023-09-19T04:31:05;15.80;99.90
13409;DHT22;6775;49.574;11.170;2023-09-19T04:33:34;15.90;99.90
13409;DHT22;6775;49.574;11.170;2023-09-19T04:36:03;15.80;99.90
13409;DHT22;6775;49.574;11.170;2023-09-19T04:38:55;15.90;99.90
13409;DHT22;6775;49.574;11.170;2023-09-19T04:41:24;15.90;99.90
13409;DHT22;6775;49.574;11.170;2023-09-19T04:43:52;15.90;99.90
13409;DHT22;6775;49.574;11.170;2023-09-19T04:46:20;16.00;99.90
13409;DHT22;6775;49.574;11.170;2023-09-19T04:48:48;16.00;99.90
13409;DHT22;6775;49.574;11.170;2023-09-19T04:51:16;16.00;99.90
13409;DHT22;6775;49.574;11.170;2023-09-19T04:53:45;16.00;99.90
13409;DHT22;6775;49.574;11.170;2023-09-19T04:56:15;16.10;99.90
13409;DHT22;6775;49.574;11.170;2023-09-19T04:58:43;16.10;99.90
13409;DHT22;6775;49.574;11.170;2023-09-19T05:01:12;16.10;99.90
13409;DHT22;6775;49.574;11.170;2023-09-19T05:03:41;16.20;99.90
13409;DHT22;6775;49.574;11.170;2023-09-19T05:06:11;16.20;99.90
13409;DHT22;6775;49.574;11.170;2023-09-19T05:08:39;16.30;99.90
13409;DHT22;6775;49.574;11.170;2023-09-19T05:11:07;16.30;99.90
13409;DHT22;6775;49.574;11.170;2023-09-19T05:13:37;16.30;99.90
13409;DHT22;6775;49.574;11.170;2023-09-19T05:16:05;16.30;99.90
13409;DHT22;6775;49.574;11.170;2023-09-19T05:18:36;16.30;99.90
13409;DHT22;6775;49.574;11.170;2023-09-19T05:21:04;16.40;99.90
13409;DHT22;6775;49.574;11.170;2023-09-19T05:23:33;16.40;99.90
13409;DHT22;6775;49.574;11.170;2023-09-19T05:26:01;16.40;99.90
13409;DHT22;6775;49.574;11.170;2023-09-19T05:28:30;16.30;99.90
13409;DHT22;6775;49.574;11.170;2023-09-19T05:31:01;16.40;99.90
13409;DHT22;6775;49.574;11.170;2023-09-19T05:33:30;16.40;99.90
13409;DHT22;6775;49.574;11.170;2023-09-19T05:35:59;16.40;99.90
13409;DHT22;6775;49.574;11.170;2023-09-19T05:38:27;16.50;99.90
13409;DHT22;6775;49.574;11.170;2023-09-19T05:40:55;16.50;99.90
13409;DHT22;6775;49.574;11.170;2023-09-19T05:43:24;16.50;99.90
13409;DHT22;6775;49.574;11.170;2023-09-19T05:45:52;16.50;99.90
13409;DHT22;6775;49.574;11.170;2023-09-19T05:48:24;16.50;99.90
13409;DHT22;6775;49.574;11.170;2023-09-19T05:50:52;16.40;99.90
13409;DHT22;6775;49.574;11.170;2023-09-19T05:53:20;16.40;99.90
13409;DHT22;6775;49.574;11.170;2023-09-19T05:55:50;16.40;99.90
13409;DHT22;6775;49.574;11.170;2023-09-19T05:58:18;16.50;99.90
13409;DHT22;6775;49.574;11.170;2023-09-19T06:00:47;16.40;99.90
13409;DHT22;6775;49.574;11.170;2023-09-19T06:03:15;16.60;99.90
13409;DHT22;6775;49.574;11.170;2023-09-19T06:05:46;16.60;99.90
13409;DHT22;6775;49.574;11.170;2023-09-19T06:08:15;16.60;99.90
13409;DHT22;6775;49.574;11.170;2023-09-19T06:10:44;16.70;99.90
13409;DHT22;6775;49.574;11.170;2023-09-19T06:13:13;16.70;99.90
13409;DHT22;6775;49.574;11.170;2023-09-19T06:15:42;16.60;99.90
13409;DHT22;6775;49.574;11.170;2023-09-19T06:18:11;16.80;99.90
13409;DHT22;6775;49.574;11.170;2023-09-19T06:20:42;16.80;99.90
13409;DHT22;6775;49.574;11.170;2023-09-19T06:23:12;16.90;99.90
13409;DHT22;6775;49.574;11.170;2023-09-19T06:25:41;17.00;99.90
13409;DHT22;6775;49.574;11.170;2023-09-19T06:28:10;17.00;99.90
13409;DHT22;6775;49.574;11.170;2023-09-19T06:30:39;17.00;99.90
13409;DHT22;6775;49.574;11.170;2023-09-19T06:33:08;17.10;99.90
13409;DHT22;6775;49.574;11.170;2023-09-19T06:35:38;17.00;99.90
13409;DHT22;6775;49.574;11.170;2023-09-19T06:38:08;17.10;99.90
13409;DHT22;6775;49.574;11.170;2023-09-19T06:40:41;17.20;99.90
13409;DHT22;6775;49.574;11.170;2023-09-19T06:43:10;17.30;99.90
13409;DHT22;6775;49.574;11.170;2023-09-19T06:45:38;17.40;99.90
13409;DHT22;6775;49.574;11.170;2023-09-19T06:48:07;17.40;99.90
13409;DHT22;6775;49.574;11.170;2023-09-19T06:50:36;17.70;99.90
13409;DHT22;6775;49.574;11.170;2023-09-19T06:53:05;17.80;99.90
13409;DHT22;6775;49.574;11.170;2023-09-19T06:55:33;18.00;99.90
13409;DHT22;6775;49.574;11.170;2023-09-19T06:58:03;18.00;99.90
13409;DHT22;6775;49.574;11.170;2023-09-19T07:00:33;18.00;99.90
13409;DHT22;6775;49.574;11.170;2023-09-19T07:03:05;18.10;99.90
13409;DHT22;6775;49.574;11.170;2023-09-19T07:05:35;18.30;99.90
13409;DHT22;6775;49.574;11.170;2023-09-19T07:08:07;18.40;99.90
13409;DHT22;6775;49.574;11.170;2023-09-19T07:10:36;18.50;99.90
13409;DHT22;6775;49.574;11.170;2023-09-19T07:13:07;18.80;99.90
13409;DHT22;6775;49.574;11.170;2023-09-19T07:15:38;18.90;99.90
13409;DHT22;6775;49.574;11.170;2023-09-19T07:18:13;19.10;99.90
13409;DHT22;6775;49.574;11.170;2023-09-19T07:20:43;19.20;99.90
13409;DHT22;6775;49.574;11.170;2023-09-19T07:23:15;19.40;99.90
13409;DHT22;6775;49.574;11.170;2023-09-19T07:25:45;19.40;99.90
13409;DHT22;6775;49.574;11.170;2023-09-19T07:28:15;19.40;99.90
13409;DHT22;6775;49.574;11.170;2023-09-19T07:30:43;19.40;99.90
13409;DHT22;6775;49.574;11.170;2023-09-19T07:33:11;19.50;99.90
13409;DHT22;6775;49.574;11.170;2023-09-19T07:35:40;19.80;99.90
13409;DHT22;6775;49.574;11.170;2023-09-19T07:38:08;20.00;99.90
13409;DHT22;6775;49.574;11.170;2023-09-19T07:40:38;20.10;99.90
13409;DHT22;6775;49.574;11.170;2023-09-19T07:43:06;20.10;99.90
13409;DHT22;6775;49.574;11.170;2023-09-19T07:45:36;19.90;99.90
13409;DHT22;6775;49.574;11.170;2023-09-19T07:48:05;19.80;99.90
13409;DHT22;6775;49.574;11.170;2023-09-19T07:50:40;19.70;99.90
13409;DHT22;6775;49.574;11.170;2023-09-19T07:53:10;19.50;99.90
13409;DHT22;6775;49.574;11.170;2023-09-19T07:55:40;19.50;99.90
13409;DHT22;6775;49.574;11.170;2023-09-19T07:58:09;19.50;99.90
13409;DHT22;6775;49.574;11.170;2023-09-19T08:00:38;19.50;99.90
13409;DHT22;6775;49.574;11.170;2023-09-19T08:03:06;19.50;99.90
13409;DHT22;6775;49.574;11.170;2023-09-19T08:05:43;19.50;99.90
13409;DHT22;6775;49.574;11.170;2023-09-19T08:08:13;19.60;99.90
13409;DHT22;6775;49.574;11.170;2023-09-19T08:10:42;19.90;99.90
13409;DHT22;6775;49.574;11.170;2023-09-19T08:13:13;20.30;99.90
13409;DHT22;6775;49.574;11.170;2023-09-19T08:15:44;20.70;99.90
13409;DHT22;6775;49.574;11.170;2023-09-19T08:18:13;20.90;99.90
13409;DHT22;6775;49.574;11.170;2023-09-19T08:20:42;21.10;99.90
13409;DHT22;6775;49.574;11.170;2023-09-19T08:23:13;21.20;99.90
13409;DHT22;6775;49.574;11.170;2023-09-19T08:25:41;21.20;99.90
13409;DHT22;6775;49.574;11.170;2023-09-19T08:28:09;21.20;99.90
13409;DHT22;6775;49.574;11.170;2023-09-19T08:30:39;21.20;99.90
13409;DHT22;6775;49.574;11.170;2023-09-19T08:33:09;21.20;99.90
13409;DHT22;6775;49.574;11.170;2023-09-19T08:35:38;21.60;99.90
13409;DHT22;6775;49.574;11.170;2023-09-19T08:38:08;22.10;99.90
13409;DHT22;6775;49.574;11.170;2023-09-19T08:40:38;22.50;99.90
13409;DHT22;6775;49.574;11.170;2023-09-19T08:43:09;22.90;99.90
13409;DHT22;6775;49.574;11.170;2023-09-19T08:45:37;23.30;99.90
13409;DHT22;6775;49.574;11.170;2023-09-19T08:48:20;23.60;99.90
13409;DHT22;6775;49.574;11.170;2023-09-19T08:50:54;23.50;99.90
13409;DHT22;6775;49.574;11.170;2023-09-19T08:53:27;23.40;99.90
13409;DHT22;6775;49.574;11.170;2023-09-19T08:56:01;23.40;99.90
13409;DHT22;6775;49.574;11.170;2023-09-19T08:58:40;23.40;99.90
13409;DHT22;6775;49.574;11.170;2023-09-19T09:01:15;23.30;99.90
13409;DHT22;6775;49.574;11.170;2023-09-19T09:03:47;23.40;99.90
13409;DHT22;6775;49.574;11.170;2023-09-19T09:06:17;23.50;99.90
13409;DHT22;6775;49.574;11.170;2023-09-19T09:08:47;23.30;99.90
13409;DHT22;6775;49.574;11.170;2023-09-19T09:11:15;23.10;99.90
13409;DHT22;6775;49.574;11.170;2023-09-19T09:13:44;22.90;99.90
13409;DHT22;6775;49.574;11.170;2023-09-19T09:16:13;22.60;99.90
13409;DHT22;6775;49.574;11.170;2023-09-19T09:18:47;22.60;99.90
13409;DHT22;6775;49.574;11.170;2023-09-19T09:21:20;22.60;99.90
13409;DHT22;6775;49.574;11.170;2023-09-19T09:23:48;22.30;99.90
13409;DHT22;6775;49.574;11.170;2023-09-19T09:26:41;21.90;99.90
13409;DHT22;6775;49.574;11.170;2023-09-19T09:29:10;21.60;99.90
13409;DHT22;6775;49.574;11.170;2023-09-19T09:31:40;21.20;99.90
13409;DHT22;6775;49.574;11.170;2023-09-19T09:34:11;21.00;99.90
13409;DHT22;6775;49.574;11.170;2023-09-19T09:36:40;20.90;99.90
13409;DHT22;6775;49.574;11.170;2023-09-19T09:39:09;20.90;99.90
13409;DHT22;6775;49.574;11.170;2023-09-19T09:41:45;20.80;99.90
13409;DHT22;6775;49.574;11.170;2023-09-19T09:44:14;21.00;99.90
13409;DHT22;6775;49.574;11.170;2023-09-19T09:46:44;21.20;99.90
13409;DHT22;6775;49.574;11.170;2023-09-19T09:49:48;21.40;99.90
13409;DHT22;6775;49.574;11.170;2023-09-19T09:52:44;21.80;99.90
13409;DHT22;6775;49.574;11.170;2023-09-19T09:55:13;22.30;99.90
13409;DHT22;6775;49.574;11.170;2023-09-19T09:57:41;22.50;99.90
13409;DHT22;6775;49.574;11.170;2023-09-19T10:00:11;22.80;99.90
13409;DHT22;6775;49.574;11.170;2023-09-19T10:02:47;23.00;99.90
13409;DHT22;6775;49.574;11.170;2023-09-19T10:05:18;23.20;99.90
13409;DHT22;6775;49.574;11.170;2023-09-19T10:07:55;23.40;99.90
13409;DHT22;6775;49.574;11.170;2023-09-19T10:10:31;23.50;99.90
13409;DHT22;6775;49.574;11.170;2023-09-19T10:13:13;23.40;99.90
13409;DHT22;6775;49.574;11.170;2023-09-19T10:15:48;23.20;99.90
13409;DHT22;6775;49.574;11.170;2023-09-19T10:18:20;22.90;99.90
13409;DHT22;6775;49.574;11.170;2023-09-19T10:20:51;22.50;99.90
13409;DHT22;6775;49.574;11.170;2023-09-19T10:23:20;22.00;99.90
13409;DHT22;6775;49.574;11.170;2023-09-19T10:25:51;21.90;99.90
13409;DHT22;6775;49.574;11.170;2023-09-19T10:28:21;21.80;99.90
13409;DHT22;6775;49.574;11.170;2023-09-19T10:30:51;21.70;99.90
13409;DHT22;6775;49.574;11.170;2023-09-19T10:33:21;21.90;99.90
13409;DHT22;6775;49.574;11.170;2023-09-19T10:35:54;22.20;99.90
13409;DHT22;6775;49.574;11.170;2023-09-19T10:38:27;22.70;99.90
13409;DHT22;6775;49.574;11.170;2023-09-19T10:40:57;23.20;99.90
13409;DHT22;6775;49.574;11.170;2023-09-19T10:43:30;23.50;99.90
13409;DHT22;6775;49.574;11.170;2023-09-19T10:46:03;23.90;99.90
13409;DHT22;6775;49.574;11.170;2023-09-19T10:48:38;24.10;98.90
13409;DHT22;6775;49.574;11.170;2023-09-19T10:51:11;24.00;98.20
13409;DHT22;6775;49.574;11.170;2023-09-19T10:53:46;23.80;98.70
13409;DHT22;6775;49.574;11.170;2023-09-19T10:56:21;23.80;98.20
13409;DHT22;6775;49.574;11.170;2023-09-19T10:59:06;23.60;98.40
13409;DHT22;6775;49.574;11.170;2023-09-19T11:01:46;23.30;98.50
13409;DHT22;6775;49.574;11.170;2023-09-19T11:04:22;23.20;98.70
13409;DHT22;6775;49.574;11.170;2023-09-19T11:07:04;23.00;98.60
13409;DHT22;6775;49.574;11.170;2023-09-19T11:09:47;22.90;98.70
13409;DHT22;6775;49.574;11.170;2023-09-19T11:12:48;22.80;98.40
13409;DHT22;6775;49.574;11.170;2023-09-19T11:18:54;22.90;99.60
13409;DHT22;6775;49.574;11.170;2023-09-19T11:21:41;23.50;99.80
13409;DHT22;6775;49.574;11.170;2023-09-19T11:24:34;23.90;99.10
13409;DHT22;6775;49.574;11.170;2023-09-19T11:27:11;24.20;99.70
13409;DHT22;6775;49.574;11.170;2023-09-19T11:29:41;24.20;98.20
13409;DHT22;6775;49.574;11.170;2023-09-19T11:32:09;24.00;97.70
13409;DHT22;6775;49.574;11.170;2023-09-19T11:34:45;23.70;98.30
13409;DHT22;6775;49.574;11.170;2023-09-19T11:44:33;23.90;96.60
13409;DHT22;6775;49.574;11.170;2023-09-19T11:47:08;23.70;97.10
13409;DHT22;6775;49.574;11.170;2023-09-19T11:49:40;23.50;97.70
13409;DHT22;6775;49.574;11.170;2023-09-19T11:52:10;23.40;97.50
13409;DHT22;6775;49.574;11.170;2023-09-19T11:54:55;23.20;97.70
13409;DHT22;6775;49.574;11.170;2023-09-19T11:57:26;23.20;97.50
13409;DHT22;6775;49.574;11.170;2023-09-19T11:59:57;23.30;96.90
13409;DHT22;6775;49.574;11.170;2023-09-19T12:02:34;23.50;97.40
13409;DHT22;6775;49.574;11.170;2023-09-19T12:05:08;23.70;97.10
13409;DHT22;6775;49.574;11.170;2023-09-19T12:07:42;23.90;96.60
13409;DHT22;6775;49.574;11.170;2023-09-19T12:10:12;23.80;96.20
13409;DHT22;6775;49.574;11.170;2023-09-19T12:12:48;23.60;95.90
13409;DHT22;6775;49.574;11.170;2023-09-19T12:15:23;23.30;96.70
13409;DHT22;6775;49.574;11.170;2023-09-19T12:17:55;23.10;97.40
13409;DHT22;6775;49.574;11.170;2023-09-19T12:20:24;23.00;97.90
13409;DHT22;6775;49.574;11.170;2023-09-19T12:22:52;22.80;97.40
13409;DHT22;6775;49.574;11.170;2023-09-19T12:25:20;22.70;98.20
13409;DHT22;6775;49.574;11.170;2023-09-19T12:27:50;22.50;97.90
13409;DHT22;6775;49.574;11.170;2023-09-19T12:30:20;22.30;98.00
13409;DHT22;6775;49.574;11.170;2023-09-19T12:32:59;22.30;97.80
13409;DHT22;6775;49.574;11.170;2023-09-19T12:35:31;22.10;96.70
13409;DHT22;6775;49.574;11.170;2023-09-19T12:38:02;22.10;97.20
13409;DHT22;6775;49.574;11.170;2023-09-19T12:40:32;22.30;97.20
13409;DHT22;6775;49.574;11.170;2023-09-19T12:43:06;22.60;96.50
13409;DHT22;6775;49.574;11.170;2023-09-19T12:45:36;22.80;95.70
13409;DHT22;6775;49.574;11.170;2023-09-19T12:48:19;22.90;96.10
13409;DHT22;6775;49.574;11.170;2023-09-19T12:51:02;23.10;94.20
13409;DHT22;6775;49.574;11.170;2023-09-19T12:53:36;23.20;94.00
13409;DHT22;6775;49.574;11.170;2023-09-19T12:56:08;23.20;94.00
13409;DHT22;6775;49.574;11.170;2023-09-19T12:58:50;23.20;94.00
13409;DHT22;6775;49.574;11.170;2023-09-19T13:01:21;23.00;94.10
13409;DHT22;6775;49.574;11.170;2023-09-19T13:04:13;22.90;94.10
13409;DHT22;6775;49.574;11.170;2023-09-19T13:06:45;22.90;94.50
13409;DHT22;6775;49.574;11.170;2023-09-19T13:09:16;22.90;94.50
13409;DHT22;6775;49.574;11.170;2023-09-19T13:11:47;22.90;94.20
13409;DHT22;6775;49.574;11.170;2023-09-19T13:14:20;22.90;94.80
13409;DHT22;6775;49.574;11.170;2023-09-19T13:16:58;22.90;94.60
13409;DHT22;6775;49.574;11.170;2023-09-19T13:19:39;23.00;94.20
13409;DHT22;6775;49.574;11.170;2023-09-19T13:22:38;23.10;94.30
13409;DHT22;6775;49.574;11.170;2023-09-19T13:25:14;23.10;94.20
13409;DHT22;6775;49.574;11.170;2023-09-19T13:27:45;23.10;94.60
13409;DHT22;6775;49.574;11.170;2023-09-19T13:30:16;23.00;94.30
13409;DHT22;6775;49.574;11.170;2023-09-19T13:32:45;23.10;94.00
13409;DHT22;6775;49.574;11.170;2023-09-19T13:35:15;23.10;94.50
13409;DHT22;6775;49.574;11.170;2023-09-19T13:37:43;23.30;94.10
13409;DHT22;6775;49.574;11.170;2023-09-19T13:40:18;23.40;95.10
13409;DHT22;6775;49.574;11.170;2023-09-19T13:42:46;23.30;94.80
13409;DHT22;6775;49.574;11.170;2023-09-19T13:45:16;23.30;93.70
13409;DHT22;6775;49.574;11.170;2023-09-19T13:47:48;23.30;93.40
13409;DHT22;6775;49.574;11.170;2023-09-19T13:50:16;23.20;93.20
13409;DHT22;6775;49.574;11.170;2023-09-19T13:52:50;23.20;93.50
13409;DHT22;6775;49.574;11.170;2023-09-19T13:55:20;23.30;94.10
13409;DHT22;6775;49.574;11.170;2023-09-19T13:57:48;23.30;93.20
13409;DHT22;6775;49.574;11.170;2023-09-19T14:00:20;23.30;93.30
13409;DHT22;6775;49.574;11.170;2023-09-19T14:02:49;23.40;93.30
13409;DHT22;6775;49.574;11.170;2023-09-19T14:05:18;23.40;93.70
13409;DHT22;6775;49.574;11.170;2023-09-19T14:07:47;23.40;93.60
13409;DHT22;6775;49.574;11.170;2023-09-19T14:10:15;23.40;93.60
13409;DHT22;6775;49.574;11.170;2023-09-19T14:12:45;23.40;93.40
13409;DHT22;6775;49.574;11.170;2023-09-19T14:15:13;23.40;93.40
13409;DHT22;6775;49.574;11.170;2023-09-19T14:17:42;23.30;93.70
13409;DHT22;6775;49.574;11.170;2023-09-19T14:20:12;23.30;94.50
13409;DHT22;6775;49.574;11.170;2023-09-19T14:22:41;23.30;94.10
13409;DHT22;6775;49.574;11.170;2023-09-19T14:25:09;23.30;93.00
13409;DHT22;6775;49.574;11.170;2023-09-19T14:27:37;23.30;92.70
13409;DHT22;6775;49.574;11.170;2023-09-19T14:30:07;23.20;93.00
13409;DHT22;6775;49.574;11.170;2023-09-19T14:32:35;23.10;92.30
13409;DHT22;6775;49.574;11.170;2023-09-19T14:35:07;22.90;92.70
13409;DHT22;6775;49.574;11.170;2023-09-19T14:37:36;22.70;93.00
13409;DHT22;6775;49.574;11.170;2023-09-19T14:40:07;22.60;93.50
13409;DHT22;6775;49.574;11.170;2023-09-19T14:42:39;22.40;93.90
13409;DHT22;6775;49.574;11.170;2023-09-19T14:45:08;22.20;94.00
13409;DHT22;6775;49.574;11.170;2023-09-19T14:47:38;22.20;93.70
13409;DHT22;6775;49.574;11.170;2023-09-19T14:50:08;22.20;93.20
13409;DHT22;6775;49.574;11.170;2023-09-19T14:52:39;22.20;93.70
13409;DHT22;6775;49.574;11.170;2023-09-19T14:55:07;22.40;93.70
13409;DHT22;6775;49.574;11.170;2023-09-19T14:57:41;22.40;93.30
13409;DHT22;6775;49.574;11.170;2023-09-19T15:00:12;22.50;93.20
13409;DHT22;6775;49.574;11.170;2023-09-19T15:02:41;22.40;93.10
13409;DHT22;6775;49.574;11.170;2023-09-19T15:05:12;22.40;93.80
13409;DHT22;6775;49.574;11.170;2023-09-19T15:07:45;22.30;93.60
13409;DHT22;6775;49.574;11.170;2023-09-19T15:10:13;22.10;94.20
13409;DHT22;6775;49.574;11.170;2023-09-19T15:12:42;22.10;94.30
13409;DHT22;6775;49.574;11.170;2023-09-19T15:15:10;21.90;94.50
13409;DHT22;6775;49.574;11.170;2023-09-19T15:17:39;21.90;95.00
13409;DHT22;6775;49.574;11.170;2023-09-19T15:20:08;21.90;95.80
13409;DHT22;6775;49.574;11.170;2023-09-19T15:22:42;21.90;95.60
13409;DHT22;6775;49.574;11.170;2023-09-19T15:25:10;21.90;95.60
13409;DHT22;6775;49.574;11.170;2023-09-19T15:27:39;21.90;95.40
13409;DHT22;6775;49.574;11.170;2023-09-19T15:30:08;21.80;95.30
13409;DHT22;6775;49.574;11.170;2023-09-19T15:32:37;21.80;95.80
13409;DHT22;6775;49.574;11.170;2023-09-19T15:35:06;21.70;95.40
13409;DHT22;6775;49.574;11.170;2023-09-19T15:37:36;21.70;95.50
13409;DHT22;6775;49.574;11.170;2023-09-19T15:40:07;21.60;95.50
13409;DHT22;6775;49.574;11.170;2023-09-19T15:42:37;21.50;96.00
13409;DHT22;6775;49.574;11.170;2023-09-19T15:45:06;21.50;96.30
13409;DHT22;6775;49.574;11.170;2023-09-19T15:47:36;21.40;96.50
13409;DHT22;6775;49.574;11.170;2023-09-19T15:50:05;21.40;96.40
13409;DHT22;6775;49.574;11.170;2023-09-19T15:52:36;21.30;96.70
13409;DHT22;6775;49.574;11.170;2023-09-19T15:55:07;21.30;97.10
13409;DHT22;6775;49.574;11.170;2023-09-19T15:57:37;21.20;96.60
13409;DHT22;6775;49.574;11.170;2023-09-19T16:00:06;21.10;96.90
13409;DHT22;6775;49.574;11.170;2023-09-19T16:02:36;21.10;96.90
13409;DHT22;6775;49.574;11.170;2023-09-19T16:05:05;21.00;96.90
13409;DHT22;6775;49.574;11.170;2023-09-19T16:07:34;20.90;97.20